createdAt,value
2023-05-01T00:02:14.427Z,77.86
2023-05-01T00:04:41.853Z,77.52
2023-05-01T00:07:09.142Z,76.10
2023-05-01T00:09:36.281Z,74.79
2023-05-01T00:12:03.895Z,74.97
2023-05-01T00:14:31.022Z,74.43
2023-05-01T00:16:58.334Z,74.79
2023-05-01T00:19:25.685Z,75.77
2023-05-01T00:21:53.299Z,76.85
2023-05-01T00:24:20.461Z,77.93
2023-05-01T00:26:47.683Z,78.44
2023-05-01T00:29:14.966Z,78.87
2023-05-01T00:31:43.035Z,78.69
2023-05-01T00:34:14.281Z,78.76
2023-05-01T00:36:41.394Z,78.93
2023-05-01T00:39:08.670Z,79.25
2023-05-01T00:41:35.985Z,79.85
2023-05-01T00:44:03.422Z,80.14
2023-05-01T00:46:30.793Z,79.96
2023-05-01T00:48:58.401Z,80.00
2023-05-01T00:51:27.812Z,79.96
2023-05-01T00:53:54.828Z,80.19
2023-05-01T00:56:21.834Z,80.54
2023-05-01T00:58:51.303Z,80.83
2023-05-01T01:01:18.988Z,80.76
2023-05-01T01:03:46.113Z,81.52
2023-05-01T01:06:24.178Z,82.25
2023-05-01T01:09:08.375Z,82.80
2023-05-01T01:12:09.599Z,83.53
2023-05-01T01:14:48.607Z,83.90
2023-05-01T01:17:29.802Z,84.24
2023-05-01T01:20:09.134Z,84.14
2023-05-01T01:22:36.376Z,83.87
2023-05-01T01:25:22.666Z,84.12
2023-05-01T01:28:09.054Z,84.40
2023-05-01T01:30:48.247Z,83.84
2023-05-01T01:33:36.786Z,83.36
2023-05-01T01:36:08.338Z,82.59
2023-05-01T01:38:42.816Z,82.59
2023-05-01T01:41:13.936Z,82.86
2023-05-01T01:43:44.180Z,83.00
2023-05-01T01:46:11.633Z,81.96
2023-05-01T01:48:42.382Z,81.13
2023-05-01T01:51:12.393Z,81.84
2023-05-01T01:53:39.533Z,82.12
2023-05-01T01:56:07.451Z,82.54
2023-05-01T01:58:36.115Z,83.17
2023-05-01T02:01:03.292Z,83.43
2023-05-01T02:03:30.638Z,83.87
2023-05-01T02:05:57.745Z,84.28
2023-05-01T02:08:24.830Z,84.19
2023-05-01T02:10:51.912Z,84.46
2023-05-01T02:13:19.346Z,84.70
2023-05-01T02:15:46.590Z,84.88
2023-05-01T02:18:13.788Z,85.14
2023-05-01T02:20:40.939Z,85.44
2023-05-01T02:23:08.257Z,85.57
2023-05-01T02:25:35.910Z,85.51
2023-05-01T02:28:04.764Z,85.63
2023-05-01T02:30:32.583Z,85.89
2023-05-01T02:32:59.889Z,86.10
2023-05-01T02:35:27.057Z,86.12
2023-05-01T02:37:54.114Z,86.22
2023-05-01T02:40:22.105Z,86.11
2023-05-01T02:42:49.292Z,85.92
2023-05-01T02:45:20.799Z,85.81
2023-05-01T02:47:50.491Z,85.53
2023-05-01T02:50:17.598Z,85.07
2023-05-01T02:52:45.195Z,84.34
2023-05-01T02:55:38.447Z,83.19
2023-05-01T02:58:05.472Z,82.85
2023-05-01T03:00:32.704Z,82.31
2023-05-01T03:02:59.780Z,82.44
2023-05-01T03:05:27.018Z,82.24
2023-05-01T03:07:54.038Z,81.92
2023-05-01T03:10:21.206Z,81.75
2023-05-01T03:12:48.229Z,81.29
2023-05-01T03:15:15.402Z,81.07
2023-05-01T03:17:42.590Z,80.95
2023-05-01T03:20:11.502Z,80.31
2023-05-01T03:22:39.295Z,80.11
2023-05-01T03:25:07.431Z,79.93
2023-05-01T03:27:34.562Z,79.82
2023-05-01T03:30:01.591Z,79.69
2023-05-01T03:32:29.691Z,79.19
2023-05-01T03:34:56.987Z,78.67
2023-05-01T03:37:24.868Z,77.95
2023-05-01T03:39:52.761Z,76.97
2023-05-01T03:42:38.372Z,76.48
2023-05-01T03:45:11.253Z,75.78
2023-05-01T03:47:38.586Z,75.34
2023-05-01T03:50:07.988Z,75.24
2023-05-01T03:52:36.363Z,74.93
2023-05-01T03:55:03.737Z,74.72
2023-05-01T03:57:35.831Z,73.94
2023-05-01T04:00:03.553Z,73.84
2023-05-01T04:02:32.008Z,73.56
2023-05-01T04:04:59.424Z,73.31
2023-05-01T04:07:26.548Z,73.03
2023-05-01T04:09:54.026Z,72.82
2023-05-01T04:12:21.262Z,72.87
2023-05-01T04:14:48.485Z,72.78
2023-05-01T04:17:16.011Z,72.61
2023-05-01T04:19:43.161Z,72.08
2023-05-01T04:22:10.168Z,72.02
2023-05-01T04:24:37.588Z,72.34
2023-05-01T04:27:05.983Z,72.55
2023-05-01T04:29:33.184Z,72.90
2023-05-01T04:32:00.535Z,73.93
2023-05-01T04:34:29.541Z,74.88
2023-05-01T04:36:57.419Z,75.43
2023-05-01T04:39:24.578Z,76.00
2023-05-01T04:41:51.653Z,76.24
2023-05-01T04:44:19.113Z,76.66
2023-05-01T04:46:47.014Z,76.92
2023-05-01T04:49:15.200Z,77.28
2023-05-01T04:51:42.382Z,77.79
2023-05-01T04:54:11.218Z,78.30
2023-05-01T04:56:38.811Z,78.85
2023-05-01T04:59:05.910Z,79.13
2023-05-01T05:01:33.370Z,79.65
2023-05-01T05:04:00.817Z,79.44
2023-05-01T05:06:29.700Z,78.01
2023-05-01T05:08:58.017Z,77.34
2023-05-01T05:11:25.158Z,76.31
2023-05-01T05:13:59.237Z,75.67
2023-05-01T05:16:26.670Z,75.69
2023-05-01T05:18:56.334Z,76.08
2023-05-01T05:21:24.618Z,76.62
2023-05-01T05:23:54.124Z,77.32
2023-05-01T05:26:22.001Z,77.07
2023-05-01T05:28:51.055Z,76.94
2023-05-01T05:31:18.174Z,76.74
2023-05-01T05:33:45.412Z,76.03
2023-05-01T05:36:13.344Z,75.27
2023-05-01T05:38:41.625Z,74.44
2023-05-01T05:41:09.628Z,75.25
2023-05-01T05:43:37.888Z,76.10
2023-05-01T05:46:06.112Z,76.06
2023-05-01T05:48:34.407Z,75.47
2023-05-01T05:51:02.494Z,75.55
2023-05-01T05:53:30.285Z,75.84
2023-05-01T05:55:57.417Z,75.22
2023-05-01T05:58:24.818Z,76.05
2023-05-01T06:00:53.331Z,75.86
2023-05-01T06:03:20.659Z,75.54
2023-05-01T06:05:48.110Z,75.77
2023-05-01T06:08:15.921Z,76.13
2023-05-01T06:10:44.013Z,75.69
2023-05-01T06:13:14.911Z,75.00
2023-05-01T06:15:46.852Z,75.74
2023-05-01T06:18:14.088Z,75.72
2023-05-01T06:20:41.397Z,74.64
2023-05-01T06:23:10.258Z,74.08
2023-05-01T06:26:00.670Z,73.57
2023-05-01T06:28:27.873Z,70.90
2023-05-01T06:30:55.362Z,69.28
2023-05-01T06:33:22.657Z,65.85
2023-05-01T06:36:00.271Z,64.97
2023-05-01T06:38:27.871Z,64.15
2023-05-01T06:40:57.300Z,63.49
2023-05-01T06:43:30.587Z,64.51
2023-05-01T06:45:58.075Z,65.32
2023-05-01T06:48:26.089Z,65.31
2023-05-01T06:50:54.230Z,66.08
2023-05-01T06:53:21.319Z,64.66
2023-05-01T06:55:48.418Z,62.86
2023-05-01T06:58:23.555Z,61.77
2023-05-01T07:00:52.468Z,61.90
2023-05-01T07:03:19.818Z,60.82
2023-05-01T07:05:46.996Z,60.45
2023-05-01T07:08:14.923Z,60.67
2023-05-01T07:10:42.395Z,61.01
2023-05-01T07:13:09.899Z,61.85
2023-05-01T07:15:37.368Z,61.49
2023-05-01T07:18:06.360Z,61.35
2023-05-01T07:20:34.873Z,61.43
2023-05-01T07:23:02.104Z,60.94
2023-05-01T07:25:30.162Z,61.01
2023-05-01T07:27:57.559Z,60.62
2023-05-01T07:30:24.912Z,60.42
2023-05-01T07:32:53.088Z,60.27
2023-05-01T07:35:20.469Z,60.87
2023-05-01T07:37:48.020Z,60.41
2023-05-01T07:40:15.239Z,60.19
2023-05-01T07:42:42.334Z,60.57
2023-05-01T07:45:09.838Z,60.48
2023-05-01T07:47:37.098Z,60.37
2023-05-01T07:50:04.645Z,59.63
2023-05-01T07:52:31.785Z,60.33
2023-05-01T07:54:58.867Z,60.34
2023-05-01T07:57:26.028Z,59.76
2023-05-01T07:59:59.323Z,59.15
2023-05-01T08:02:26.809Z,58.94
2023-05-01T08:04:54.205Z,58.70
2023-05-01T08:07:21.294Z,58.34
2023-05-01T08:09:48.434Z,58.23
2023-05-01T08:12:15.556Z,58.49
2023-05-01T08:14:42.674Z,58.16
2023-05-01T08:17:09.735Z,57.40
2023-05-01T08:19:36.883Z,57.24
2023-05-01T08:22:05.084Z,56.72
2023-05-01T08:24:32.163Z,55.68
2023-05-01T08:26:59.365Z,54.91
2023-05-01T08:29:26.437Z,55.73
2023-05-01T08:31:53.657Z,56.50
2023-05-01T08:34:20.818Z,57.01
2023-05-01T08:36:47.799Z,57.62
2023-05-01T08:39:15.733Z,58.18
2023-05-01T08:41:46.381Z,57.07
2023-05-01T08:44:16.971Z,57.28
2023-05-01T08:46:48.287Z,58.89
2023-05-01T08:49:15.984Z,59.95
2023-05-01T08:51:46.213Z,59.48
2023-05-01T08:54:14.343Z,60.44
2023-05-01T08:56:42.333Z,61.11
2023-05-01T08:59:10.057Z,60.27
2023-05-01T09:01:37.202Z,59.55
2023-05-01T09:04:04.521Z,59.98
2023-05-01T09:06:32.674Z,60.09
2023-05-01T09:09:00.271Z,59.50
2023-05-01T09:11:27.316Z,60.18
2023-05-01T09:13:54.404Z,61.53
2023-05-01T09:16:21.643Z,59.86
2023-05-01T09:18:49.000Z,58.63
2023-05-01T09:21:16.523Z,56.73
2023-05-01T09:23:43.756Z,56.08
2023-05-01T09:26:11.026Z,56.20
2023-05-01T09:28:45.372Z,56.15
2023-05-01T09:31:29.258Z,56.32
2023-05-01T09:34:00.263Z,55.64
2023-05-01T09:36:28.141Z,55.72
2023-05-01T09:38:55.239Z,56.97
2023-05-01T09:41:22.678Z,57.74
2023-05-01T09:43:53.724Z,58.27
2023-05-01T09:46:21.035Z,57.88
2023-05-01T09:48:55.714Z,57.45
2023-05-01T09:51:23.803Z,57.74
2023-05-01T09:53:51.549Z,57.42
2023-05-01T09:56:19.463Z,56.51
2023-05-01T09:58:47.380Z,54.32
2023-05-01T10:01:15.343Z,55.21
2023-05-01T10:03:43.679Z,55.89
2023-05-01T10:06:10.839Z,56.48
2023-05-01T10:08:50.820Z,56.54
2023-05-01T10:11:18.181Z,55.86
2023-05-01T10:13:45.273Z,53.71
2023-05-01T10:16:30.911Z,53.31
2023-05-01T10:18:58.701Z,51.66
2023-05-01T10:21:25.947Z,48.89
2023-05-01T10:23:53.334Z,48.61
2023-05-01T10:26:20.870Z,48.20
2023-05-01T10:28:49.174Z,48.80
2023-05-01T10:31:16.806Z,49.01
2023-05-01T10:33:44.683Z,48.44
2023-05-01T10:36:33.505Z,48.48
2023-05-01T10:39:00.719Z,49.63
2023-05-01T10:41:58.768Z,50.58
2023-05-01T10:44:27.204Z,50.16
2023-05-01T10:46:55.015Z,48.23
2023-05-01T10:49:22.495Z,46.36
2023-05-01T10:51:58.753Z,48.09
2023-05-01T10:54:29.931Z,49.24
2023-05-01T10:57:01.420Z,51.31
2023-05-01T10:59:59.968Z,50.20
2023-05-01T11:02:27.179Z,47.92
2023-05-01T11:04:56.584Z,46.64
2023-05-01T11:07:24.117Z,47.21
2023-05-01T11:09:55.614Z,47.61
2023-05-01T11:12:51.823Z,47.43
2023-05-01T11:15:34.487Z,46.18
2023-05-01T11:18:02.451Z,44.18
2023-05-01T11:20:29.543Z,44.70
2023-05-01T11:22:57.368Z,45.57
2023-05-01T11:25:26.998Z,46.95
2023-05-01T11:27:55.499Z,48.30
2023-05-01T11:30:22.706Z,48.53
2023-05-01T11:32:50.381Z,48.81
2023-05-01T11:35:19.038Z,48.78
2023-05-01T11:37:46.432Z,47.17
2023-05-01T11:40:32.383Z,47.26
2023-05-01T11:43:06.420Z,47.31
2023-05-01T11:45:34.420Z,46.76
2023-05-01T11:48:04.358Z,47.12
2023-05-01T11:50:38.604Z,47.37
2023-05-01T11:53:12.015Z,47.72
2023-05-01T11:55:40.323Z,48.35
2023-05-01T11:58:07.748Z,48.61
2023-05-01T12:00:37.011Z,49.41
2023-05-01T12:03:08.044Z,49.11
2023-05-01T12:05:37.440Z,49.93
2023-05-01T12:08:21.240Z,49.31
2023-05-01T12:10:50.977Z,49.30
2023-05-01T12:13:18.166Z,48.76
2023-05-01T12:15:46.762Z,47.84
2023-05-01T12:18:14.556Z,46.63
2023-05-01T12:20:59.929Z,46.63
2023-05-01T12:23:39.560Z,46.37
2023-05-01T12:26:19.495Z,45.72
2023-05-01T12:28:56.269Z,45.56
2023-05-01T12:31:23.782Z,46.80
2023-05-01T12:34:01.009Z,46.78
2023-05-01T12:36:29.106Z,48.00
2023-05-01T12:39:03.732Z,48.18
2023-05-01T12:41:42.763Z,49.02
2023-05-01T12:44:23.923Z,49.27
2023-05-01T12:46:54.174Z,49.26
2023-05-01T12:49:21.568Z,49.59
2023-05-01T12:51:49.366Z,49.76
2023-05-01T12:54:20.657Z,50.33
2023-05-01T12:56:47.928Z,50.43
2023-05-01T12:59:27.723Z,50.19
2023-05-01T13:01:59.338Z,49.83
2023-05-01T13:04:27.242Z,49.67
2023-05-01T13:06:56.150Z,49.76
2023-05-01T13:09:32.618Z,46.41
2023-05-01T13:12:00.801Z,44.18
2023-05-01T13:14:27.907Z,43.51
2023-05-01T13:16:55.645Z,43.17
2023-05-01T13:19:29.104Z,43.04
2023-05-01T13:21:57.625Z,43.22
2023-05-01T13:24:25.527Z,43.47
2023-05-01T13:27:03.614Z,44.61
2023-05-01T13:29:32.820Z,44.84
2023-05-01T13:31:59.959Z,45.17
2023-05-01T13:34:31.070Z,45.70
2023-05-01T13:36:58.404Z,45.60
2023-05-01T13:39:25.506Z,44.71
2023-05-01T13:41:52.983Z,42.65
2023-05-01T13:44:20.853Z,43.12
2023-05-01T13:46:48.480Z,43.47
2023-05-01T13:49:15.669Z,43.81
2023-05-01T13:51:43.415Z,44.27
2023-05-01T13:54:10.972Z,44.50
2023-05-01T13:56:39.143Z,43.90
2023-05-01T13:59:07.159Z,43.78
2023-05-01T14:01:47.677Z,43.21
2023-05-01T14:04:17.053Z,42.16
2023-05-01T14:06:44.614Z,42.11
2023-05-01T14:09:11.747Z,40.94
2023-05-01T14:11:47.070Z,40.30
2023-05-01T14:14:15.807Z,37.43
2023-05-01T14:16:44.097Z,36.54
2023-05-01T14:19:11.241Z,36.81
2023-05-01T14:21:40.340Z,36.20
2023-05-01T14:24:08.009Z,35.83
2023-05-01T14:26:36.605Z,35.00
2023-05-01T14:29:04.362Z,33.81
2023-05-01T14:31:32.238Z,32.04
2023-05-01T14:34:00.083Z,32.50
2023-05-01T14:36:34.089Z,31.78
2023-05-01T14:39:02.812Z,31.14
2023-05-01T14:41:31.758Z,30.86
2023-05-01T14:43:59.172Z,30.13
2023-05-01T14:46:34.380Z,29.01
2023-05-01T14:49:01.770Z,28.83
2023-05-01T14:51:29.580Z,28.88
2023-05-01T14:53:56.667Z,28.09
2023-05-01T14:56:24.024Z,27.38
2023-05-01T14:58:51.159Z,27.27
2023-05-01T15:01:19.534Z,27.72
2023-05-01T15:03:46.811Z,26.95
2023-05-01T15:06:14.063Z,26.25
2023-05-01T15:08:41.197Z,25.65
2023-05-01T15:11:08.766Z,26.79
2023-05-01T15:13:36.545Z,27.03
2023-05-01T15:16:04.598Z,26.98
2023-05-01T15:18:31.767Z,27.86
2023-05-01T15:20:58.947Z,28.59
2023-05-01T15:23:27.555Z,28.75
2023-05-01T15:25:54.944Z,28.80
2023-05-01T15:28:22.244Z,28.14
2023-05-01T15:30:49.401Z,28.22
2023-05-01T15:33:19.330Z,28.76
2023-05-01T15:35:49.033Z,28.82
2023-05-01T15:38:16.186Z,29.47
2023-05-01T15:40:43.464Z,29.01
2023-05-01T15:43:10.852Z,29.10
2023-05-01T15:45:43.470Z,28.97
2023-05-01T15:48:12.084Z,28.56
2023-05-01T15:50:39.310Z,27.93
2023-05-01T15:53:06.409Z,27.90
2023-05-01T15:55:34.859Z,28.23
2023-05-01T15:58:03.079Z,28.46
2023-05-01T16:00:30.208Z,28.67
2023-05-01T16:02:57.479Z,29.16
2023-05-01T16:05:25.124Z,29.81
2023-05-01T16:07:54.299Z,29.86
2023-05-01T16:10:21.827Z,29.82
2023-05-01T16:12:50.784Z,30.23
2023-05-01T16:15:17.837Z,30.55
2023-05-01T16:17:45.457Z,30.49
2023-05-01T16:20:14.592Z,30.69
2023-05-01T16:22:42.292Z,30.74
2023-05-01T16:25:11.334Z,30.39
2023-05-01T16:27:44.694Z,30.30
2023-05-01T16:30:14.551Z,30.41
2023-05-01T16:32:42.031Z,30.59
2023-05-01T16:35:16.675Z,30.44
2023-05-01T16:37:43.738Z,30.42
2023-05-01T16:40:15.674Z,30.80
2023-05-01T16:42:43.180Z,30.53
2023-05-01T16:45:37.265Z,30.76
2023-05-01T16:48:06.684Z,31.02
2023-05-01T16:50:34.197Z,31.58
2023-05-01T16:53:03.859Z,31.83
2023-05-01T16:55:31.964Z,32.28
2023-05-01T16:58:00.919Z,32.63
2023-05-01T17:00:29.551Z,32.69
2023-05-01T17:02:59.023Z,32.70
2023-05-01T17:05:26.396Z,33.14
2023-05-01T17:07:54.566Z,33.26
2023-05-01T17:10:22.192Z,33.67
2023-05-01T17:12:49.512Z,33.74
2023-05-01T17:15:17.089Z,33.69
2023-05-01T17:17:44.398Z,33.78
2023-05-01T17:20:12.276Z,34.23
2023-05-01T17:22:39.471Z,34.52
2023-05-01T17:25:07.281Z,34.76
2023-05-01T17:27:34.412Z,35.02
2023-05-01T17:30:02.099Z,35.32
2023-05-01T17:32:36.861Z,35.75
2023-05-01T17:35:05.642Z,36.06
2023-05-01T17:37:33.284Z,35.93
2023-05-01T17:40:01.965Z,36.11
2023-05-01T17:42:29.422Z,36.51
2023-05-01T17:44:56.668Z,36.73
2023-05-01T17:47:25.885Z,36.97
2023-05-01T17:49:53.481Z,37.33
2023-05-01T17:52:22.222Z,37.60
2023-05-01T17:54:50.826Z,38.02
2023-05-01T17:57:18.123Z,38.16
2023-05-01T17:59:47.831Z,38.66
2023-05-01T18:02:16.140Z,38.84
2023-05-01T18:04:46.128Z,39.31
2023-05-01T18:07:13.277Z,39.43
2023-05-01T18:09:40.928Z,39.76
2023-05-01T18:12:08.065Z,40.10
2023-05-01T18:14:36.295Z,40.46
2023-05-01T18:17:03.397Z,40.81
2023-05-01T18:19:30.591Z,41.03
2023-05-01T18:21:57.805Z,41.56
2023-05-01T18:24:25.019Z,41.92
2023-05-01T18:26:52.268Z,42.35
2023-05-01T18:29:19.362Z,42.61
2023-05-01T18:31:47.469Z,42.99
2023-05-01T18:34:14.790Z,43.13
2023-05-01T18:36:41.948Z,43.43
2023-05-01T18:39:09.065Z,43.53
2023-05-01T18:41:36.284Z,43.50
2023-05-01T18:44:04.384Z,43.61
2023-05-01T18:46:31.610Z,43.60
2023-05-01T18:49:00.134Z,43.69
2023-05-01T18:51:27.402Z,43.86
2023-05-01T18:53:54.835Z,43.86
2023-05-01T18:56:24.434Z,44.26
2023-05-01T18:58:51.609Z,44.38
2023-05-01T19:01:18.805Z,44.73
2023-05-01T19:03:47.456Z,44.91
2023-05-01T19:06:14.569Z,45.05
2023-05-01T19:08:42.374Z,45.24
2023-05-01T19:11:09.688Z,45.41
2023-05-01T19:13:37.020Z,45.58
2023-05-01T19:16:04.512Z,45.67
2023-05-01T19:18:33.514Z,45.54
2023-05-01T19:21:00.685Z,45.56
2023-05-01T19:23:31.196Z,45.56
2023-05-01T19:25:58.260Z,45.58
2023-05-01T19:28:25.582Z,45.94
2023-05-01T19:30:53.909Z,45.96
2023-05-01T19:33:22.381Z,45.99
2023-05-01T19:35:49.984Z,46.57
2023-05-01T19:38:17.091Z,46.60
2023-05-01T19:40:46.363Z,46.66
2023-05-01T19:43:13.907Z,46.69
2023-05-01T19:45:43.188Z,46.54
2023-05-01T19:48:10.535Z,46.70
2023-05-01T19:50:38.073Z,46.74
2023-05-01T19:53:06.256Z,46.88
2023-05-01T19:55:33.780Z,47.08
2023-05-01T19:58:01.118Z,46.79
2023-05-01T20:00:28.273Z,46.64
2023-05-01T20:02:57.770Z,46.54
2023-05-01T20:05:28.346Z,46.51
2023-05-01T20:07:55.865Z,46.62
2023-05-01T20:10:26.529Z,46.49
2023-05-01T20:12:54.236Z,46.49
2023-05-01T20:15:21.438Z,46.54
2023-05-01T20:17:51.452Z,46.47
2023-05-01T20:20:19.455Z,46.55
2023-05-01T20:22:47.009Z,46.73
2023-05-01T20:25:14.411Z,46.87
2023-05-01T20:27:41.833Z,46.88
2023-05-01T20:30:13.049Z,47.08
2023-05-01T20:32:44.199Z,47.42
2023-05-01T20:35:11.784Z,47.78
2023-05-01T20:37:39.249Z,47.77
2023-05-01T20:40:07.501Z,47.86
2023-05-01T20:42:35.162Z,47.89
2023-05-01T20:45:02.309Z,48.18
2023-05-01T20:47:29.755Z,47.96
2023-05-01T20:49:57.573Z,47.97
2023-05-01T20:52:26.193Z,47.96
2023-05-01T20:54:53.678Z,48.07
2023-05-01T20:57:20.728Z,48.41
2023-05-01T20:59:49.337Z,48.74
2023-05-01T21:02:17.408Z,49.21
2023-05-01T21:04:46.362Z,49.51
2023-05-01T21:07:13.673Z,49.99
2023-05-01T21:09:47.196Z,50.36
2023-05-01T21:12:14.797Z,50.66
2023-05-01T21:14:42.190Z,50.77
2023-05-01T21:17:09.556Z,50.99
2023-05-01T21:19:44.012Z,51.04
2023-05-01T21:22:23.906Z,51.15
2023-05-01T21:24:55.541Z,51.30
2023-05-01T21:27:24.220Z,51.50
2023-05-01T21:30:00.939Z,51.76
2023-05-01T21:32:32.743Z,51.95
2023-05-01T21:35:00.823Z,52.15
2023-05-01T21:37:29.471Z,52.32
2023-05-01T21:40:00.834Z,52.78
2023-05-01T21:42:34.989Z,53.03
2023-05-01T21:45:09.261Z,53.36
2023-05-01T21:47:41.117Z,53.63
2023-05-01T21:50:10.029Z,53.72
2023-05-01T21:52:39.196Z,54.01
2023-05-01T21:55:11.352Z,54.05
2023-05-01T21:57:39.209Z,54.04
2023-05-01T22:00:09.885Z,53.91
2023-05-01T22:02:43.151Z,54.10
2023-05-01T22:05:11.199Z,54.46
2023-05-01T22:07:41.974Z,54.83
2023-05-01T22:10:10.088Z,55.11
2023-05-01T22:12:38.627Z,55.38
2023-05-01T22:15:12.355Z,55.45
2023-05-01T22:17:39.629Z,55.47
2023-05-01T22:20:07.411Z,55.71
2023-05-01T22:22:35.068Z,55.85
2023-05-01T22:25:02.627Z,56.11
2023-05-01T22:27:29.967Z,56.41
2023-05-01T22:29:57.437Z,56.71
2023-05-01T22:32:25.414Z,56.88
2023-05-01T22:34:52.534Z,56.92
2023-05-01T22:37:19.810Z,56.99
2023-05-01T22:39:46.807Z,57.01
2023-05-01T22:42:13.938Z,57.14
2023-05-01T22:44:41.349Z,57.26
2023-05-01T22:47:08.421Z,57.40
2023-05-01T22:49:35.587Z,57.62
2023-05-01T22:52:03.040Z,57.71
2023-05-01T22:54:30.340Z,57.74
2023-05-01T22:56:57.359Z,57.85
2023-05-01T22:59:24.532Z,57.90
2023-05-01T23:01:51.737Z,57.93
2023-05-01T23:04:18.947Z,58.10
2023-05-01T23:06:46.299Z,58.17
2023-05-01T23:09:13.455Z,58.22
2023-05-01T23:11:40.963Z,58.15
2023-05-01T23:14:08.037Z,58.27
2023-05-01T23:16:38.407Z,58.40
2023-05-01T23:19:05.538Z,58.38
2023-05-01T23:21:32.583Z,58.56
2023-05-01T23:23:59.706Z,58.59
2023-05-01T23:26:28.973Z,58.71
2023-05-01T23:28:56.084Z,58.58
2023-05-01T23:31:25.936Z,58.61
2023-05-01T23:33:53.547Z,58.71
2023-05-01T23:36:20.794Z,58.55
2023-05-01T23:38:47.964Z,58.67
2023-05-01T23:41:15.224Z,58.74
2023-05-01T23:43:42.540Z,59.14
2023-05-01T23:46:09.629Z,59.28
2023-05-01T23:48:37.237Z,59.26
2023-05-01T23:51:04.505Z,59.65
2023-05-01T23:53:31.607Z,59.68
2023-05-01T23:55:58.689Z,59.83
2023-05-01T23:58:25.793Z,60.03
